sensor_id;sensor_type;location;lat;lon;timestamp;P1;durP1;ratioP1;P2;durP2;ratioP2
77022;SDS011;65952;51.440;-2.054;2023-04-21T00:02:15;14.60;;;6.10;;
77022;SDS011;65952;51.440;-2.054;2023-04-21T00:04:41;10.10;;;5.55;;
77022;SDS011;65952;51.440;-2.054;2023-04-21T00:07:09;10.25;;;5.68;;
77022;SDS011;65952;51.440;-2.054;2023-04-21T00:09:35;14.57;;;5.85;;
77022;SDS011;65952;51.440;-2.054;2023-04-21T00:12:00;14.57;;;6.10;;
77022;SDS011;65952;51.440;-2.054;2023-04-21T00:14:25;12.55;;;6.20;;
77022;SDS011;65952;51.440;-2.054;2023-04-21T00:16:51;12.50;;;6.93;;
77022;SDS011;65952;51.440;-2.054;2023-04-21T00:19:20;13.23;;;6.47;;
77022;SDS011;65952;51.440;-2.054;2023-04-21T00:21:45;13.93;;;6.75;;
77022;SDS011;65952;51.440;-2.054;2023-04-21T00:24:11;13.95;;;6.75;;
77022;SDS011;65952;51.440;-2.054;2023-04-21T00:26:36;12.30;;;6.47;;
77022;SDS011;65952;51.440;-2.054;2023-04-21T00:29:02;14.05;;;6.18;;
77022;SDS011;65952;51.440;-2.054;2023-04-21T00:31:28;11.60;;;6.68;;
77022;SDS011;65952;51.440;-2.054;2023-04-21T00:33:53;16.45;;;7.90;;
77022;SDS011;65952;51.440;-2.054;2023-04-21T00:36:19;12.20;;;6.32;;
77022;SDS011;65952;51.440;-2.054;2023-04-21T00:38:45;15.60;;;6.85;;
77022;SDS011;65952;51.440;-2.054;2023-04-21T00:41:10;14.95;;;7.05;;
77022;SDS011;65952;51.440;-2.054;2023-04-21T00:43:36;15.15;;;7.50;;
77022;SDS011;65952;51.440;-2.054;2023-04-21T00:46:01;13.20;;;7.20;;
77022;SDS011;65952;51.440;-2.054;2023-04-21T00:48:26;17.42;;;7.85;;
77022;SDS011;65952;51.440;-2.054;2023-04-21T00:50:52;13.75;;;7.10;;
77022;SDS011;65952;51.440;-2.054;2023-04-21T00:53:17;14.48;;;7.65;;
77022;SDS011;65952;51.440;-2.054;2023-04-21T00:55:44;13.48;;;7.20;;
77022;SDS011;65952;51.440;-2.054;2023-04-21T00:58:10;15.52;;;7.38;;
77022;SDS011;65952;51.440;-2.054;2023-04-21T01:00:36;15.70;;;7.65;;
77022;SDS011;65952;51.440;-2.054;2023-04-21T01:03:02;17.08;;;7.60;;
77022;SDS011;65952;51.440;-2.054;2023-04-21T01:05:29;15.93;;;7.00;;
77022;SDS011;65952;51.440;-2.054;2023-04-21T01:07:55;12.43;;;6.88;;
77022;SDS011;65952;51.440;-2.054;2023-04-21T01:10:21;16.08;;;7.55;;
77022;SDS011;65952;51.440;-2.054;2023-04-21T01:12:46;16.27;;;7.13;;
77022;SDS011;65952;51.440;-2.054;2023-04-21T01:15:12;10.82;;;5.18;;
77022;SDS011;65952;51.440;-2.054;2023-04-21T01:17:40;14.70;;;6.82;;
77022;SDS011;65952;51.440;-2.054;2023-04-21T01:20:07;16.02;;;6.57;;
77022;SDS011;65952;51.440;-2.054;2023-04-21T01:22:38;15.73;;;7.05;;
77022;SDS011;65952;51.440;-2.054;2023-04-21T01:25:05;12.13;;;7.60;;
77022;SDS011;65952;51.440;-2.054;2023-04-21T01:27:31;12.75;;;6.57;;
77022;SDS011;65952;51.440;-2.054;2023-04-21T01:29:57;10.40;;;5.82;;
77022;SDS011;65952;51.440;-2.054;2023-04-21T01:32:28;14.70;;;7.90;;
77022;SDS011;65952;51.440;-2.054;2023-04-21T01:34:54;15.30;;;7.28;;
77022;SDS011;65952;51.440;-2.054;2023-04-21T01:37:22;16.33;;;6.88;;
77022;SDS011;65952;51.440;-2.054;2023-04-21T01:39:52;13.85;;;6.85;;
77022;SDS011;65952;51.440;-2.054;2023-04-21T01:42:20;19.67;;;7.13;;
77022;SDS011;65952;51.440;-2.054;2023-04-21T01:44:46;18.45;;;7.63;;
77022;SDS011;65952;51.440;-2.054;2023-04-21T01:47:13;15.30;;;7.15;;
77022;SDS011;65952;51.440;-2.054;2023-04-21T01:49:39;15.73;;;7.55;;
77022;SDS011;65952;51.440;-2.054;2023-04-21T01:52:04;17.15;;;7.57;;
77022;SDS011;65952;51.440;-2.054;2023-04-21T01:54:30;15.52;;;7.68;;
77022;SDS011;65952;51.440;-2.054;2023-04-21T01:56:55;14.45;;;7.32;;
77022;SDS011;65952;51.440;-2.054;2023-04-21T01:59:22;16.75;;;7.82;;
77022;SDS011;65952;51.440;-2.054;2023-04-21T02:01:47;14.55;;;7.72;;
77022;SDS011;65952;51.440;-2.054;2023-04-21T02:04:13;19.17;;;7.75;;
77022;SDS011;65952;51.440;-2.054;2023-04-21T02:06:38;18.15;;;7.28;;
77022;SDS011;65952;51.440;-2.054;2023-04-21T02:09:04;18.67;;;7.82;;
77022;SDS011;65952;51.440;-2.054;2023-04-21T02:11:29;16.35;;;8.10;;
77022;SDS011;65952;51.440;-2.054;2023-04-21T02:13:55;15.35;;;8.48;;
77022;SDS011;65952;51.440;-2.054;2023-04-21T02:16:21;15.45;;;7.75;;
77022;SDS011;65952;51.440;-2.054;2023-04-21T02:18:50;15.90;;;7.75;;
77022;SDS011;65952;51.440;-2.054;2023-04-21T02:21:17;18.45;;;8.13;;
77022;SDS011;65952;51.440;-2.054;2023-04-21T02:23:43;17.10;;;7.60;;
77022;SDS011;65952;51.440;-2.054;2023-04-21T02:26:08;17.10;;;8.68;;
77022;SDS011;65952;51.440;-2.054;2023-04-21T02:28:34;16.17;;;7.72;;
77022;SDS011;65952;51.440;-2.054;2023-04-21T02:30:59;20.30;;;8.18;;
77022;SDS011;65952;51.440;-2.054;2023-04-21T02:33:25;16.42;;;7.38;;
77022;SDS011;65952;51.440;-2.054;2023-04-21T02:35:50;15.90;;;7.78;;
77022;SDS011;65952;51.440;-2.054;2023-04-21T02:38:16;21.48;;;7.40;;
77022;SDS011;65952;51.440;-2.054;2023-04-21T02:40:41;15.88;;;7.82;;
77022;SDS011;65952;51.440;-2.054;2023-04-21T02:43:07;15.50;;;7.88;;
77022;SDS011;65952;51.440;-2.054;2023-04-21T02:45:32;19.63;;;8.32;;
77022;SDS011;65952;51.440;-2.054;2023-04-21T02:47:58;17.17;;;7.20;;
77022;SDS011;65952;51.440;-2.054;2023-04-21T02:50:23;18.52;;;7.95;;
77022;SDS011;65952;51.440;-2.054;2023-04-21T02:52:49;15.88;;;7.70;;
77022;SDS011;65952;51.440;-2.054;2023-04-21T02:55:14;13.98;;;7.03;;
77022;SDS011;65952;51.440;-2.054;2023-04-21T02:57:40;15.10;;;8.43;;
77022;SDS011;65952;51.440;-2.054;2023-04-21T03:00:06;15.65;;;8.18;;
77022;SDS011;65952;51.440;-2.054;2023-04-21T03:02:32;18.67;;;8.18;;
77022;SDS011;65952;51.440;-2.054;2023-04-21T03:04:57;18.67;;;7.90;;
77022;SDS011;65952;51.440;-2.054;2023-04-21T03:07:22;20.85;;;8.13;;
77022;SDS011;65952;51.440;-2.054;2023-04-21T03:09:48;19.77;;;9.38;;
77022;SDS011;65952;51.440;-2.054;2023-04-21T03:12:13;17.63;;;7.97;;
77022;SDS011;65952;51.440;-2.054;2023-04-21T03:14:38;18.13;;;8.02;;
77022;SDS011;65952;51.440;-2.054;2023-04-21T03:17:04;16.17;;;7.38;;
77022;SDS011;65952;51.440;-2.054;2023-04-21T03:19:29;14.82;;;7.90;;
77022;SDS011;65952;51.440;-2.054;2023-04-21T03:21:55;22.05;;;8.70;;
77022;SDS011;65952;51.440;-2.054;2023-04-21T03:24:20;15.23;;;7.53;;
77022;SDS011;65952;51.440;-2.054;2023-04-21T03:26:47;19.08;;;8.55;;
77022;SDS011;65952;51.440;-2.054;2023-04-21T03:29:12;17.25;;;7.25;;
77022;SDS011;65952;51.440;-2.054;2023-04-21T03:31:37;18.75;;;8.40;;
77022;SDS011;65952;51.440;-2.054;2023-04-21T03:34:03;17.55;;;8.20;;
77022;SDS011;65952;51.440;-2.054;2023-04-21T03:36:28;19.08;;;7.60;;
77022;SDS011;65952;51.440;-2.054;2023-04-21T03:38:54;16.58;;;7.97;;
77022;SDS011;65952;51.440;-2.054;2023-04-21T03:41:19;17.92;;;8.55;;
77022;SDS011;65952;51.440;-2.054;2023-04-21T03:43:44;16.00;;;7.43;;
77022;SDS011;65952;51.440;-2.054;2023-04-21T03:46:20;18.13;;;8.45;;
77022;SDS011;65952;51.440;-2.054;2023-04-21T03:48:46;16.17;;;8.15;;
77022;SDS011;65952;51.440;-2.054;2023-04-21T03:51:12;19.83;;;8.55;;
77022;SDS011;65952;51.440;-2.054;2023-04-21T03:53:38;22.30;;;9.27;;
77022;SDS011;65952;51.440;-2.054;2023-04-21T03:56:03;18.65;;;9.52;;
77022;SDS011;65952;51.440;-2.054;2023-04-21T03:58:29;22.45;;;9.70;;
77022;SDS011;65952;51.440;-2.054;2023-04-21T04:00:55;21.98;;;9.40;;
77022;SDS011;65952;51.440;-2.054;2023-04-21T04:03:20;19.92;;;8.48;;
77022;SDS011;65952;51.440;-2.054;2023-04-21T04:05:46;19.75;;;9.00;;
77022;SDS011;65952;51.440;-2.054;2023-04-21T04:08:11;17.80;;;8.48;;
77022;SDS011;65952;51.440;-2.054;2023-04-21T04:10:36;20.83;;;9.40;;
77022;SDS011;65952;51.440;-2.054;2023-04-21T04:13:02;19.73;;;8.85;;
77022;SDS011;65952;51.440;-2.054;2023-04-21T04:15:27;18.77;;;8.77;;
77022;SDS011;65952;51.440;-2.054;2023-04-21T04:17:53;18.60;;;9.27;;
77022;SDS011;65952;51.440;-2.054;2023-04-21T04:20:18;22.02;;;9.43;;
77022;SDS011;65952;51.440;-2.054;2023-04-21T04:22:43;19.55;;;9.25;;
77022;SDS011;65952;51.440;-2.054;2023-04-21T04:25:09;15.95;;;8.75;;
77022;SDS011;65952;51.440;-2.054;2023-04-21T04:27:36;20.17;;;9.20;;
77022;SDS011;65952;51.440;-2.054;2023-04-21T04:30:02;22.02;;;9.60;;
77022;SDS011;65952;51.440;-2.054;2023-04-21T04:32:28;20.50;;;9.45;;
77022;SDS011;65952;51.440;-2.054;2023-04-21T04:34:53;18.10;;;8.95;;
77022;SDS011;65952;51.440;-2.054;2023-04-21T04:37:22;18.33;;;8.48;;
77022;SDS011;65952;51.440;-2.054;2023-04-21T04:39:51;18.15;;;8.57;;
77022;SDS011;65952;51.440;-2.054;2023-04-21T04:42:17;19.83;;;9.18;;
77022;SDS011;65952;51.440;-2.054;2023-04-21T04:44:44;20.92;;;9.55;;
77022;SDS011;65952;51.440;-2.054;2023-04-21T04:47:09;17.73;;;8.40;;
77022;SDS011;65952;51.440;-2.054;2023-04-21T04:49:35;17.33;;;8.10;;
77022;SDS011;65952;51.440;-2.054;2023-04-21T04:52:00;20.70;;;8.52;;
77022;SDS011;65952;51.440;-2.054;2023-04-21T04:54:26;19.20;;;9.43;;
77022;SDS011;65952;51.440;-2.054;2023-04-21T04:56:53;16.67;;;8.95;;
77022;SDS011;65952;51.440;-2.054;2023-04-21T04:59:18;17.52;;;8.52;;
77022;SDS011;65952;51.440;-2.054;2023-04-21T05:01:43;18.83;;;9.27;;
77022;SDS011;65952;51.440;-2.054;2023-04-21T05:04:09;19.38;;;8.57;;
77022;SDS011;65952;51.440;-2.054;2023-04-21T05:06:35;17.98;;;8.80;;
77022;SDS011;65952;51.440;-2.054;2023-04-21T05:09:01;17.52;;;8.27;;
77022;SDS011;65952;51.440;-2.054;2023-04-21T05:11:26;26.77;;;9.85;;
77022;SDS011;65952;51.440;-2.054;2023-04-21T05:13:52;15.90;;;8.55;;
77022;SDS011;65952;51.440;-2.054;2023-04-21T05:16:17;20.23;;;9.25;;
77022;SDS011;65952;51.440;-2.054;2023-04-21T05:18:42;16.30;;;7.97;;
77022;SDS011;65952;51.440;-2.054;2023-04-21T05:21:08;19.70;;;8.77;;
77022;SDS011;65952;51.440;-2.054;2023-04-21T05:23:33;20.10;;;8.65;;
77022;SDS011;65952;51.440;-2.054;2023-04-21T05:25:59;16.92;;;8.80;;
77022;SDS011;65952;51.440;-2.054;2023-04-21T05:28:24;18.63;;;9.18;;
77022;SDS011;65952;51.440;-2.054;2023-04-21T05:30:50;18.60;;;8.60;;
77022;SDS011;65952;51.440;-2.054;2023-04-21T05:33:18;20.17;;;9.20;;
77022;SDS011;65952;51.440;-2.054;2023-04-21T05:35:44;20.85;;;8.57;;
77022;SDS011;65952;51.440;-2.054;2023-04-21T05:38:09;18.25;;;8.68;;
77022;SDS011;65952;51.440;-2.054;2023-04-21T05:40:34;17.27;;;8.52;;
77022;SDS011;65952;51.440;-2.054;2023-04-21T05:43:00;20.35;;;8.00;;
77022;SDS011;65952;51.440;-2.054;2023-04-21T05:45:25;18.95;;;8.32;;
77022;SDS011;65952;51.440;-2.054;2023-04-21T05:47:51;16.65;;;8.43;;
77022;SDS011;65952;51.440;-2.054;2023-04-21T05:50:16;18.00;;;8.43;;
77022;SDS011;65952;51.440;-2.054;2023-04-21T05:52:41;18.70;;;7.97;;
77022;SDS011;65952;51.440;-2.054;2023-04-21T05:55:07;17.20;;;8.50;;
77022;SDS011;65952;51.440;-2.054;2023-04-21T05:57:32;18.92;;;8.35;;
77022;SDS011;65952;51.440;-2.054;2023-04-21T05:59:58;17.08;;;8.00;;
77022;SDS011;65952;51.440;-2.054;2023-04-21T06:02:23;18.30;;;8.50;;
77022;SDS011;65952;51.440;-2.054;2023-04-21T06:04:48;16.88;;;9.32;;
77022;SDS011;65952;51.440;-2.054;2023-04-21T06:07:14;17.63;;;9.07;;
77022;SDS011;65952;51.440;-2.054;2023-04-21T06:09:41;15.75;;;8.93;;
77022;SDS011;65952;51.440;-2.054;2023-04-21T06:12:07;15.85;;;7.95;;
77022;SDS011;65952;51.440;-2.054;2023-04-21T06:14:32;19.42;;;9.27;;
77022;SDS011;65952;51.440;-2.054;2023-04-21T06:16:58;18.38;;;9.55;;
77022;SDS011;65952;51.440;-2.054;2023-04-21T06:19:23;21.77;;;10.23;;
77022;SDS011;65952;51.440;-2.054;2023-04-21T06:21:49;20.95;;;10.00;;
77022;SDS011;65952;51.440;-2.054;2023-04-21T06:24:15;31.75;;;10.35;;
77022;SDS011;65952;51.440;-2.054;2023-04-21T06:26:41;22.75;;;9.18;;
77022;SDS011;65952;51.440;-2.054;2023-04-21T06:29:06;23.00;;;9.98;;
77022;SDS011;65952;51.440;-2.054;2023-04-21T06:31:31;17.83;;;9.55;;
77022;SDS011;65952;51.440;-2.054;2023-04-21T06:33:57;20.30;;;9.73;;
77022;SDS011;65952;51.440;-2.054;2023-04-21T06:36:22;21.00;;;9.68;;
77022;SDS011;65952;51.440;-2.054;2023-04-21T06:38:48;17.63;;;9.05;;
77022;SDS011;65952;51.440;-2.054;2023-04-21T06:41:13;21.42;;;9.77;;
77022;SDS011;65952;51.440;-2.054;2023-04-21T06:43:39;20.00;;;8.95;;
77022;SDS011;65952;51.440;-2.054;2023-04-21T06:46:04;21.50;;;9.75;;
77022;SDS011;65952;51.440;-2.054;2023-04-21T06:48:30;21.30;;;9.60;;
77022;SDS011;65952;51.440;-2.054;2023-04-21T06:50:55;21.67;;;9.35;;
77022;SDS011;65952;51.440;-2.054;2023-04-21T06:53:21;21.08;;;9.30;;
77022;SDS011;65952;51.440;-2.054;2023-04-21T06:55:46;18.27;;;8.52;;
77022;SDS011;65952;51.440;-2.054;2023-04-21T06:58:12;20.63;;;9.25;;
77022;SDS011;65952;51.440;-2.054;2023-04-21T07:00:38;18.40;;;9.77;;
77022;SDS011;65952;51.440;-2.054;2023-04-21T07:03:04;20.17;;;10.00;;
77022;SDS011;65952;51.440;-2.054;2023-04-21T07:05:30;20.15;;;8.80;;
77022;SDS011;65952;51.440;-2.054;2023-04-21T07:07:56;22.77;;;10.02;;
77022;SDS011;65952;51.440;-2.054;2023-04-21T07:10:24;26.35;;;10.32;;
77022;SDS011;65952;51.440;-2.054;2023-04-21T07:12:50;18.85;;;9.90;;
77022;SDS011;65952;51.440;-2.054;2023-04-21T07:15:16;21.67;;;10.52;;
77022;SDS011;65952;51.440;-2.054;2023-04-21T07:17:41;23.05;;;9.65;;
77022;SDS011;65952;51.440;-2.054;2023-04-21T07:20:07;26.63;;;11.18;;
77022;SDS011;65952;51.440;-2.054;2023-04-21T07:22:32;22.40;;;9.98;;
77022;SDS011;65952;51.440;-2.054;2023-04-21T07:25:00;20.50;;;9.40;;
77022;SDS011;65952;51.440;-2.054;2023-04-21T07:27:26;21.65;;;10.07;;
77022;SDS011;65952;51.440;-2.054;2023-04-21T07:29:51;22.40;;;10.80;;
77022;SDS011;65952;51.440;-2.054;2023-04-21T07:32:17;19.88;;;9.35;;
77022;SDS011;65952;51.440;-2.054;2023-04-21T07:34:42;22.98;;;9.85;;
77022;SDS011;65952;51.440;-2.054;2023-04-21T07:37:10;21.20;;;9.13;;
77022;SDS011;65952;51.440;-2.054;2023-04-21T07:39:36;20.60;;;9.88;;
77022;SDS011;65952;51.440;-2.054;2023-04-21T07:42:01;22.40;;;10.65;;
77022;SDS011;65952;51.440;-2.054;2023-04-21T07:44:27;21.67;;;10.35;;
77022;SDS011;65952;51.440;-2.054;2023-04-21T07:46:53;26.45;;;11.10;;
77022;SDS011;65952;51.440;-2.054;2023-04-21T07:49:18;20.92;;;10.30;;
77022;SDS011;65952;51.440;-2.054;2023-04-21T07:51:44;20.98;;;10.88;;
77022;SDS011;65952;51.440;-2.054;2023-04-21T07:54:09;22.08;;;9.93;;
77022;SDS011;65952;51.440;-2.054;2023-04-21T07:56:35;22.10;;;10.02;;
77022;SDS011;65952;51.440;-2.054;2023-04-21T07:59:00;21.63;;;10.30;;
77022;SDS011;65952;51.440;-2.054;2023-04-21T08:01:26;20.80;;;10.07;;
77022;SDS011;65952;51.440;-2.054;2023-04-21T08:03:51;20.83;;;10.55;;
77022;SDS011;65952;51.440;-2.054;2023-04-21T08:06:16;21.52;;;8.90;;
77022;SDS011;65952;51.440;-2.054;2023-04-21T08:08:42;20.15;;;8.95;;
77022;SDS011;65952;51.440;-2.054;2023-04-21T08:11:07;23.95;;;9.77;;
77022;SDS011;65952;51.440;-2.054;2023-04-21T08:13:33;19.13;;;9.75;;
77022;SDS011;65952;51.440;-2.054;2023-04-21T08:15:59;18.77;;;9.48;;
77022;SDS011;65952;51.440;-2.054;2023-04-21T08:18:25;19.38;;;8.98;;
77022;SDS011;65952;51.440;-2.054;2023-04-21T08:20:50;18.67;;;9.00;;
77022;SDS011;65952;51.440;-2.054;2023-04-21T08:23:16;16.52;;;8.85;;
77022;SDS011;65952;51.440;-2.054;2023-04-21T08:25:42;18.92;;;8.70;;
77022;SDS011;65952;51.440;-2.054;2023-04-21T08:28:07;16.88;;;8.85;;
77022;SDS011;65952;51.440;-2.054;2023-04-21T08:30:33;19.20;;;9.82;;
77022;SDS011;65952;51.440;-2.054;2023-04-21T08:32:58;18.58;;;8.77;;
77022;SDS011;65952;51.440;-2.054;2023-04-21T08:35:24;12.88;;;6.95;;
77022;SDS011;65952;51.440;-2.054;2023-04-21T08:37:49;15.02;;;7.65;;
77022;SDS011;65952;51.440;-2.054;2023-04-21T08:40:15;16.45;;;7.60;;
77022;SDS011;65952;51.440;-2.054;2023-04-21T08:42:40;13.63;;;7.72;;
77022;SDS011;65952;51.440;-2.054;2023-04-21T08:45:06;17.38;;;8.00;;
77022;SDS011;65952;51.440;-2.054;2023-04-21T08:47:32;13.90;;;7.22;;
77022;SDS011;65952;51.440;-2.054;2023-04-21T08:49:58;13.15;;;7.45;;
77022;SDS011;65952;51.440;-2.054;2023-04-21T08:52:24;12.38;;;6.70;;
77022;SDS011;65952;51.440;-2.054;2023-04-21T08:54:50;16.90;;;8.40;;
77022;SDS011;65952;51.440;-2.054;2023-04-21T08:57:20;13.45;;;7.38;;
77022;SDS011;65952;51.440;-2.054;2023-04-21T08:59:46;20.83;;;7.28;;
77022;SDS011;65952;51.440;-2.054;2023-04-21T09:02:12;14.65;;;6.68;;
77022;SDS011;65952;51.440;-2.054;2023-04-21T09:04:43;13.43;;;6.93;;
77022;SDS011;65952;51.440;-2.054;2023-04-21T09:07:10;13.38;;;7.30;;
77022;SDS011;65952;51.440;-2.054;2023-04-21T09:09:52;15.00;;;8.10;;
77022;SDS011;65952;51.440;-2.054;2023-04-21T09:12:19;14.93;;;5.68;;
77022;SDS011;65952;51.440;-2.054;2023-04-21T09:14:45;14.60;;;8.75;;
77022;SDS011;65952;51.440;-2.054;2023-04-21T09:17:11;13.13;;;7.38;;
77022;SDS011;65952;51.440;-2.054;2023-04-21T09:19:36;15.00;;;8.05;;
77022;SDS011;65952;51.440;-2.054;2023-04-21T09:22:02;16.05;;;7.45;;
77022;SDS011;65952;51.440;-2.054;2023-04-21T09:24:28;14.57;;;7.95;;
77022;SDS011;65952;51.440;-2.054;2023-04-21T09:26:54;14.18;;;7.03;;
77022;SDS011;65952;51.440;-2.054;2023-04-21T09:29:23;13.90;;;7.22;;
77022;SDS011;65952;51.440;-2.054;2023-04-21T09:31:50;12.60;;;7.38;;
77022;SDS011;65952;51.440;-2.054;2023-04-21T09:34:20;12.93;;;5.90;;
77022;SDS011;65952;51.440;-2.054;2023-04-21T09:36:48;18.15;;;8.73;;
77022;SDS011;65952;51.440;-2.054;2023-04-21T09:39:24;13.23;;;7.18;;
77022;SDS011;65952;51.440;-2.054;2023-04-21T09:41:49;14.57;;;7.38;;
77022;SDS011;65952;51.440;-2.054;2023-04-21T09:44:15;14.38;;;7.07;;
77022;SDS011;65952;51.440;-2.054;2023-04-21T09:46:41;16.33;;;7.45;;
77022;SDS011;65952;51.440;-2.054;2023-04-21T09:49:08;11.02;;;6.05;;
77022;SDS011;65952;51.440;-2.054;2023-04-21T09:51:37;13.57;;;6.35;;
77022;SDS011;65952;51.440;-2.054;2023-04-21T09:54:07;12.70;;;6.85;;
77022;SDS011;65952;51.440;-2.054;2023-04-21T09:56:41;12.40;;;7.20;;
77022;SDS011;65952;51.440;-2.054;2023-04-21T09:59:08;11.23;;;6.85;;
77022;SDS011;65952;51.440;-2.054;2023-04-21T10:01:40;13.20;;;6.22;;
77022;SDS011;65952;51.440;-2.054;2023-04-21T10:04:07;13.05;;;6.68;;
77022;SDS011;65952;51.440;-2.054;2023-04-21T10:06:33;14.10;;;6.63;;
77022;SDS011;65952;51.440;-2.054;2023-04-21T10:09:00;13.82;;;7.03;;
77022;SDS011;65952;51.440;-2.054;2023-04-21T10:11:28;12.48;;;6.50;;
77022;SDS011;65952;51.440;-2.054;2023-04-21T10:13:53;10.77;;;6.18;;
77022;SDS011;65952;51.440;-2.054;2023-04-21T10:16:19;14.35;;;6.70;;
77022;SDS011;65952;51.440;-2.054;2023-04-21T10:18:47;12.77;;;6.95;;
77022;SDS011;65952;51.440;-2.054;2023-04-21T10:21:16;11.32;;;6.43;;
77022;SDS011;65952;51.440;-2.054;2023-04-21T10:28:53;13.23;;;7.10;;
77022;SDS011;65952;51.440;-2.054;2023-04-21T10:31:27;15.10;;;7.32;;
77022;SDS011;65952;51.440;-2.054;2023-04-21T10:39:36;13.20;;;7.28;;
77022;SDS011;65952;51.440;-2.054;2023-04-21T10:50:29;11.80;;;6.93;;
77022;SDS011;65952;51.440;-2.054;2023-04-21T10:53:16;11.13;;;6.78;;
77022;SDS011;65952;51.440;-2.054;2023-04-21T10:55:40;10.30;;;6.25;;
77022;SDS011;65952;51.440;-2.054;2023-04-21T10:58:07;11.40;;;5.78;;
77022;SDS011;65952;51.440;-2.054;2023-04-21T11:00:33;9.93;;;5.95;;
77022;SDS011;65952;51.440;-2.054;2023-04-21T11:03:03;10.15;;;5.90;;
77022;SDS011;65952;51.440;-2.054;2023-04-21T11:05:39;10.55;;;6.18;;
77022;SDS011;65952;51.440;-2.054;2023-04-21T11:08:06;8.93;;;5.47;;
77022;SDS011;65952;51.440;-2.054;2023-04-21T11:13:12;9.57;;;5.65;;
77022;SDS011;65952;51.440;-2.054;2023-04-21T11:15:38;9.63;;;5.32;;
77022;SDS011;65952;51.440;-2.054;2023-04-21T11:18:04;8.25;;;4.88;;
77022;SDS011;65952;51.440;-2.054;2023-04-21T11:20:31;8.00;;;4.78;;
77022;SDS011;65952;51.440;-2.054;2023-04-21T11:22:57;7.15;;;3.70;;
77022;SDS011;65952;51.440;-2.054;2023-04-21T11:25:23;8.35;;;4.30;;
77022;SDS011;65952;51.440;-2.054;2023-04-21T11:27:55;6.53;;;4.15;;
77022;SDS011;65952;51.440;-2.054;2023-04-21T11:30:30;5.72;;;3.63;;
77022;SDS011;65952;51.440;-2.054;2023-04-21T11:32:58;7.15;;;3.70;;
77022;SDS011;65952;51.440;-2.054;2023-04-21T11:35:23;7.03;;;3.83;;
77022;SDS011;65952;51.440;-2.054;2023-04-21T11:37:49;7.22;;;4.38;;
77022;SDS011;65952;51.440;-2.054;2023-04-21T11:40:17;7.15;;;3.55;;
77022;SDS011;65952;51.440;-2.054;2023-04-21T11:42:43;6.68;;;3.38;;
77022;SDS011;65952;51.440;-2.054;2023-04-21T11:45:15;6.30;;;3.25;;
77022;SDS011;65952;51.440;-2.054;2023-04-21T11:50:07;5.82;;;3.33;;
77022;SDS011;65952;51.440;-2.054;2023-04-21T11:52:34;5.85;;;3.10;;
77022;SDS011;65952;51.440;-2.054;2023-04-21T11:57:35;6.22;;;3.25;;
77022;SDS011;65952;51.440;-2.054;2023-04-21T12:00:01;7.65;;;4.10;;
77022;SDS011;65952;51.440;-2.054;2023-04-21T12:02:30;6.97;;;3.78;;
77022;SDS011;65952;51.440;-2.054;2023-04-21T12:04:57;7.13;;;4.10;;
77022;SDS011;65952;51.440;-2.054;2023-04-21T12:07:27;6.68;;;3.90;;
77022;SDS011;65952;51.440;-2.054;2023-04-21T12:09:54;9.13;;;4.50;;
77022;SDS011;65952;51.440;-2.054;2023-04-21T12:12:20;8.95;;;4.05;;
77022;SDS011;65952;51.440;-2.054;2023-04-21T12:14:46;7.97;;;4.00;;
77022;SDS011;65952;51.440;-2.054;2023-04-21T12:17:13;7.80;;;4.00;;
77022;SDS011;65952;51.440;-2.054;2023-04-21T12:19:40;7.93;;;4.18;;
77022;SDS011;65952;51.440;-2.054;2023-04-21T12:22:07;7.18;;;4.00;;
77022;SDS011;65952;51.440;-2.054;2023-04-21T12:24:33;7.53;;;4.20;;
77022;SDS011;65952;51.440;-2.054;2023-04-21T12:26:59;7.07;;;4.13;;
77022;SDS011;65952;51.440;-2.054;2023-04-21T12:29:24;7.88;;;3.78;;
77022;SDS011;65952;51.440;-2.054;2023-04-21T12:31:50;9.75;;;4.93;;
77022;SDS011;65952;51.440;-2.054;2023-04-21T12:34:15;5.78;;;3.60;;
77022;SDS011;65952;51.440;-2.054;2023-04-21T12:36:40;8.35;;;4.40;;
77022;SDS011;65952;51.440;-2.054;2023-04-21T12:39:06;9.98;;;4.25;;
77022;SDS011;65952;51.440;-2.054;2023-04-21T12:41:34;6.78;;;3.80;;
77022;SDS011;65952;51.440;-2.054;2023-04-21T12:44:00;8.50;;;4.95;;
77022;SDS011;65952;51.440;-2.054;2023-04-21T12:46:25;8.18;;;4.35;;
77022;SDS011;65952;51.440;-2.054;2023-04-21T12:48:52;7.35;;;3.50;;
77022;SDS011;65952;51.440;-2.054;2023-04-21T12:51:17;7.88;;;3.47;;
77022;SDS011;65952;51.440;-2.054;2023-04-21T12:53:42;8.30;;;3.95;;
77022;SDS011;65952;51.440;-2.054;2023-04-21T12:56:09;7.10;;;3.97;;
77022;SDS011;65952;51.440;-2.054;2023-04-21T12:58:34;6.57;;;3.88;;
77022;SDS011;65952;51.440;-2.054;2023-04-21T13:01:00;6.15;;;3.60;;
77022;SDS011;65952;51.440;-2.054;2023-04-21T13:03:25;6.47;;;4.10;;
77022;SDS011;65952;51.440;-2.054;2023-04-21T13:05:51;6.30;;;3.92;;
77022;SDS011;65952;51.440;-2.054;2023-04-21T13:08:16;7.97;;;3.78;;
77022;SDS011;65952;51.440;-2.054;2023-04-21T13:10:42;6.75;;;3.83;;
77022;SDS011;65952;51.440;-2.054;2023-04-21T13:13:08;7.32;;;3.80;;
77022;SDS011;65952;51.440;-2.054;2023-04-21T13:15:34;6.68;;;3.58;;
77022;SDS011;65952;51.440;-2.054;2023-04-21T13:17:59;6.97;;;3.92;;
77022;SDS011;65952;51.440;-2.054;2023-04-21T13:20:25;8.77;;;4.03;;
77022;SDS011;65952;51.440;-2.054;2023-04-21T13:22:50;7.28;;;4.03;;
77022;SDS011;65952;51.440;-2.054;2023-04-21T13:25:16;7.30;;;4.00;;
77022;SDS011;65952;51.440;-2.054;2023-04-21T13:27:41;6.60;;;3.70;;
77022;SDS011;65952;51.440;-2.054;2023-04-21T13:30:11;6.63;;;3.88;;
77022;SDS011;65952;51.440;-2.054;2023-04-21T13:32:39;6.97;;;4.00;;
77022;SDS011;65952;51.440;-2.054;2023-04-21T13:35:06;7.13;;;3.70;;
77022;SDS011;65952;51.440;-2.054;2023-04-21T13:37:37;6.40;;;3.72;;
77022;SDS011;65952;51.440;-2.054;2023-04-21T13:40:04;6.10;;;3.75;;
77022;SDS011;65952;51.440;-2.054;2023-04-21T13:42:31;7.03;;;3.50;;
77022;SDS011;65952;51.440;-2.054;2023-04-21T13:44:57;6.80;;;3.90;;
77022;SDS011;65952;51.440;-2.054;2023-04-21T13:47:23;5.28;;;3.08;;
77022;SDS011;65952;51.440;-2.054;2023-04-21T13:49:48;6.68;;;3.10;;
77022;SDS011;65952;51.440;-2.054;2023-04-21T13:52:15;7.00;;;3.40;;
77022;SDS011;65952;51.440;-2.054;2023-04-21T13:54:41;5.30;;;3.30;;
77022;SDS011;65952;51.440;-2.054;2023-04-21T13:57:06;6.28;;;3.58;;
77022;SDS011;65952;51.440;-2.054;2023-04-21T13:59:32;6.57;;;3.70;;
77022;SDS011;65952;51.440;-2.054;2023-04-21T14:01:58;5.25;;;3.30;;
77022;SDS011;65952;51.440;-2.054;2023-04-21T14:04:23;6.82;;;3.70;;
77022;SDS011;65952;51.440;-2.054;2023-04-21T14:06:49;5.90;;;3.28;;
77022;SDS011;65952;51.440;-2.054;2023-04-21T14:09:15;6.80;;;3.70;;
77022;SDS011;65952;51.440;-2.054;2023-04-21T14:11:40;6.22;;;3.33;;
77022;SDS011;65952;51.440;-2.054;2023-04-21T14:14:06;6.32;;;3.60;;
77022;SDS011;65952;51.440;-2.054;2023-04-21T14:16:32;6.85;;;3.38;;
77022;SDS011;65952;51.440;-2.054;2023-04-21T14:18:57;6.07;;;3.10;;
77022;SDS011;65952;51.440;-2.054;2023-04-21T14:21:23;5.88;;;3.17;;
77022;SDS011;65952;51.440;-2.054;2023-04-21T14:23:48;5.40;;;2.92;;
77022;SDS011;65952;51.440;-2.054;2023-04-21T14:26:13;5.80;;;3.15;;
77022;SDS011;65952;51.440;-2.054;2023-04-21T14:28:39;5.38;;;3.00;;
77022;SDS011;65952;51.440;-2.054;2023-04-21T14:31:04;5.57;;;2.97;;
77022;SDS011;65952;51.440;-2.054;2023-04-21T14:33:30;4.88;;;3.00;;
77022;SDS011;65952;51.440;-2.054;2023-04-21T14:35:57;5.30;;;3.00;;
77022;SDS011;65952;51.440;-2.054;2023-04-21T14:38:22;5.35;;;3.00;;
77022;SDS011;65952;51.440;-2.054;2023-04-21T14:40:49;6.53;;;3.70;;
77022;SDS011;65952;51.440;-2.054;2023-04-21T14:43:18;5.68;;;3.08;;
77022;SDS011;65952;51.440;-2.054;2023-04-21T14:45:44;5.78;;;2.90;;